createdAt,value
2022-08-12T00:00:18.419Z,2.45
2022-08-12T00:03:23.153Z,2.30
2022-08-12T00:06:29.488Z,2.47
2022-08-12T00:09:34.070Z,2.20
2022-08-12T00:12:38.567Z,2.20
2022-08-12T00:15:44.982Z,2.22
2022-08-12T00:18:49.719Z,2.20
2022-08-12T00:21:56.696Z,2.30
2022-08-12T00:25:01.305Z,2.20
2022-08-12T00:28:06.753Z,2.47
2022-08-12T00:31:11.563Z,2.22
2022-08-12T00:34:16.443Z,2.25
2022-08-12T00:37:24.177Z,2.13
2022-08-12T00:40:32.274Z,2.70
2022-08-12T00:43:20.826Z,2.28
2022-08-12T00:46:25.229Z,2.55
2022-08-12T00:49:11.509Z,2.30
2022-08-12T00:52:08.448Z,2.90
2022-08-12T00:54:58.780Z,2.20
2022-08-12T00:57:48.928Z,2.10
2022-08-12T01:00:37.045Z,2.25
2022-08-12T01:03:24.780Z,2.80
2022-08-12T01:06:26.414Z,2.38
2022-08-12T01:09:33.410Z,2.60
2022-08-12T01:12:21.081Z,2.88
2022-08-12T01:15:07.786Z,2.42
2022-08-12T01:17:53.961Z,2.38
2022-08-12T01:20:53.509Z,2.50
2022-08-12T01:24:23.056Z,2.35
2022-08-12T01:27:17.107Z,2.70
2022-08-12T01:30:08.796Z,2.60
2022-08-12T01:32:59.430Z,2.70
2022-08-12T01:35:57.857Z,2.72
2022-08-12T01:38:59.128Z,2.42
2022-08-12T01:41:54.587Z,2.80
2022-08-12T01:44:42.870Z,2.92
2022-08-12T01:47:39.375Z,3.50
2022-08-12T01:50:37.821Z,3.10
2022-08-12T01:53:27.224Z,2.42
2022-08-12T01:56:15.686Z,3.00
2022-08-12T01:59:19.602Z,2.97
2022-08-12T02:02:13.320Z,2.67
2022-08-12T02:05:30.712Z,2.55
2022-08-12T02:08:52.258Z,2.63
2022-08-12T02:11:49.496Z,2.70
2022-08-12T02:14:51.763Z,2.85
2022-08-12T02:17:56.419Z,2.33
2022-08-12T02:20:52.886Z,2.60
2022-08-12T02:23:40.865Z,2.67
2022-08-12T02:26:31.801Z,2.28
2022-08-12T02:29:20.214Z,2.60
2022-08-12T02:32:08.450Z,2.88
2022-08-12T02:34:58.029Z,2.55
2022-08-12T02:37:45.729Z,2.90
2022-08-12T02:40:36.250Z,2.67
2022-08-12T02:43:34.923Z,3.20
2022-08-12T02:46:29.246Z,2.97
2022-08-12T02:49:22.935Z,3.00
2022-08-12T02:52:12.255Z,3.00
2022-08-12T02:55:34.063Z,2.78
2022-08-12T02:58:32.906Z,2.80
2022-08-12T03:01:28.756Z,2.47
2022-08-12T03:04:26.813Z,2.67
2022-08-12T03:07:21.352Z,3.00
2022-08-12T03:10:14.628Z,2.95
2022-08-12T03:13:08.509Z,2.75
2022-08-12T03:15:56.262Z,2.80
2022-08-12T03:18:45.947Z,2.55
2022-08-12T03:21:57.855Z,3.13
2022-08-12T03:24:46.307Z,2.85
2022-08-12T03:27:33.520Z,3.10
2022-08-12T03:30:21.811Z,2.70
2022-08-12T03:33:10.574Z,3.22
2022-08-12T03:36:00.911Z,3.22
2022-08-12T03:39:12.212Z,3.40
2022-08-12T03:42:06.425Z,2.85
2022-08-12T03:45:19.786Z,3.05
2022-08-12T03:48:28.188Z,3.60
2022-08-12T03:51:33.688Z,3.47
2022-08-12T03:54:42.146Z,2.90
2022-08-12T03:57:48.617Z,3.17
2022-08-12T04:00:37.635Z,2.80
2022-08-12T04:03:42.409Z,2.97
2022-08-12T04:06:34.539Z,2.97
2022-08-12T04:09:22.890Z,3.22
2022-08-12T04:12:32.326Z,3.13
2022-08-12T04:15:20.734Z,3.30
2022-08-12T04:18:07.999Z,3.72
2022-08-12T04:20:55.227Z,3.10
2022-08-12T04:23:47.869Z,3.50
2022-08-12T04:30:30.487Z,3.75
2022-08-12T04:32:33.714Z,3.25
2022-08-12T04:35:22.107Z,3.60
2022-08-12T04:38:09.677Z,3.33
2022-08-12T04:40:56.972Z,3.80
2022-08-12T04:44:00.773Z,3.15
2022-08-12T04:46:49.870Z,3.35
2022-08-12T04:49:39.286Z,3.78
2022-08-12T04:52:26.288Z,3.17
2022-08-12T04:55:13.481Z,3.28
2022-08-12T04:58:00.430Z,3.30
2022-08-12T05:00:47.680Z,3.10
2022-08-12T05:03:46.814Z,2.90
2022-08-12T05:06:36.891Z,3.08
2022-08-12T05:09:23.803Z,3.10
2022-08-12T05:12:12.705Z,3.08
2022-08-12T05:15:00.860Z,3.25
2022-08-12T05:17:48.585Z,3.00
2022-08-12T05:20:35.943Z,3.20
2022-08-12T05:23:24.177Z,3.13
2022-08-12T05:26:11.807Z,3.00
2022-08-12T05:28:58.858Z,3.17
2022-08-12T05:31:47.974Z,3.25
2022-08-12T05:34:35.953Z,3.47
2022-08-12T05:37:23.479Z,2.92
2022-08-12T05:40:12.860Z,3.10
2022-08-12T05:42:59.760Z,3.10
2022-08-12T05:45:46.829Z,3.75
2022-08-12T05:48:34.180Z,3.03
2022-08-12T05:51:32.286Z,2.83
2022-08-12T05:54:54.356Z,3.13
2022-08-12T05:57:37.401Z,3.15
2022-08-12T06:00:26.006Z,2.78
2022-08-12T06:03:19.734Z,3.25
2022-08-12T06:06:07.513Z,4.65
2022-08-12T06:08:57.666Z,3.15
2022-08-12T06:12:04.371Z,2.85
2022-08-12T06:14:55.414Z,3.05
2022-08-12T06:17:42.548Z,2.78
2022-08-12T06:20:33.521Z,2.50
2022-08-12T06:23:21.068Z,2.50
2022-08-12T06:26:13.011Z,2.47
2022-08-12T06:29:00.893Z,2.55
2022-08-12T06:31:53.007Z,2.72
2022-08-12T06:35:25.390Z,2.53
2022-08-12T06:37:56.832Z,2.70
2022-08-12T06:40:59.644Z,3.03
2022-08-12T06:44:04.529Z,2.50
2022-08-12T06:46:53.867Z,2.60
2022-08-12T06:49:43.284Z,2.33
2022-08-12T06:52:31.274Z,2.10
2022-08-12T06:55:20.693Z,2.53
2022-08-12T06:58:10.175Z,2.40
2022-08-12T07:01:00.865Z,2.13
2022-08-12T07:03:48.973Z,2.40
2022-08-12T07:06:36.200Z,2.50
2022-08-12T07:10:04.419Z,2.75
2022-08-12T07:12:30.225Z,2.22
2022-08-12T07:15:20.451Z,2.55
2022-08-12T07:18:16.221Z,2.70
2022-08-12T07:21:08.300Z,2.25
2022-08-12T07:23:55.622Z,2.70
2022-08-12T07:26:44.246Z,2.40
2022-08-12T07:29:58.036Z,2.70
2022-08-12T07:32:38.966Z,2.45
2022-08-12T07:35:26.035Z,2.50
2022-08-12T07:38:29.889Z,2.83
2022-08-12T07:41:19.737Z,2.88
2022-08-12T07:44:09.044Z,2.35
2022-08-12T07:46:55.839Z,2.30
2022-08-12T07:50:04.220Z,2.70
2022-08-12T07:52:50.012Z,2.80
2022-08-12T07:55:39.281Z,2.33
2022-08-12T07:58:26.296Z,2.40
2022-08-12T08:01:16.534Z,2.30
2022-08-12T08:04:19.394Z,2.40
2022-08-12T08:07:05.993Z,2.53
2022-08-12T08:09:51.875Z,2.60
2022-08-12T08:12:56.119Z,2.55
2022-08-12T08:16:02.406Z,2.60
2022-08-12T08:18:50.878Z,3.00
2022-08-12T08:21:38.236Z,2.40
2022-08-12T08:24:27.038Z,2.58
2022-08-12T08:27:13.897Z,2.08
2022-08-12T08:30:02.514Z,2.20
2022-08-12T08:32:49.909Z,2.10
2022-08-12T08:35:47.646Z,2.28
2022-08-12T08:42:17.445Z,2.38
2022-08-12T08:44:42.992Z,2.50
2022-08-12T08:47:30.442Z,2.13
2022-08-12T08:50:16.332Z,2.05
2022-08-12T08:53:03.353Z,2.00
2022-08-12T08:56:04.547Z,2.33
2022-08-12T08:58:52.513Z,2.17
2022-08-12T09:01:40.750Z,2.20
2022-08-12T09:05:11.973Z,3.08
2022-08-12T09:07:58.938Z,2.00
2022-08-12T09:10:55.257Z,2.25
2022-08-12T09:14:12.960Z,2.63
2022-08-12T09:16:52.957Z,2.55
2022-08-12T09:19:42.263Z,2.30
2022-08-12T09:22:30.290Z,2.42
2022-08-12T09:28:30.824Z,1.98
2022-08-12T09:32:04.382Z,2.33
2022-08-12T09:34:33.882Z,1.80
2022-08-12T09:37:26.918Z,2.13
2022-08-12T09:40:57.533Z,2.10
2022-08-12T09:43:36.336Z,2.05
2022-08-12T09:46:25.347Z,2.17
2022-08-12T09:49:13.230Z,1.75
2022-08-12T09:52:03.013Z,1.60
2022-08-12T09:54:53.828Z,2.10
2022-08-12T09:58:44.983Z,1.80
2022-08-12T10:00:52.815Z,1.83
2022-08-12T10:04:03.379Z,1.75
2022-08-12T10:06:54.717Z,1.83
2022-08-12T10:09:58.139Z,1.88
2022-08-12T10:13:07.567Z,1.52
2022-08-12T10:16:01.797Z,1.77
2022-08-12T10:18:54.542Z,1.80
2022-08-12T10:21:44.408Z,2.05
2022-08-12T10:24:31.553Z,1.75
2022-08-12T10:27:39.516Z,2.30
2022-08-12T10:30:46.815Z,1.98
2022-08-12T10:34:05.053Z,1.75
2022-08-12T10:36:54.276Z,1.65
2022-08-12T10:40:01.707Z,1.70
2022-08-12T10:43:03.374Z,1.63
2022-08-12T10:45:50.497Z,1.73
2022-08-12T10:48:36.563Z,1.88
2022-08-12T10:52:03.901Z,1.88
2022-08-12T10:54:31.406Z,1.95
2022-08-12T10:58:12.523Z,1.52
2022-08-12T11:00:31.165Z,1.38
2022-08-12T11:04:23.903Z,1.60
2022-08-12T11:07:09.386Z,1.50
2022-08-12T11:09:41.608Z,1.75
2022-08-12T11:12:59.678Z,1.50
2022-08-12T11:16:19.708Z,1.30
2022-08-12T11:18:57.058Z,1.80
2022-08-12T11:21:57.712Z,1.60
2022-08-12T11:24:51.403Z,2.15
2022-08-12T11:27:38.843Z,1.60
2022-08-12T11:30:31.635Z,1.60
2022-08-12T11:33:24.037Z,1.70
2022-08-12T11:36:27.675Z,1.55
2022-08-12T11:39:15.392Z,1.58
2022-08-12T11:42:11.392Z,1.13
2022-08-12T11:44:59.919Z,1.73
2022-08-12T11:47:46.753Z,1.30
2022-08-12T11:50:40.611Z,1.50
2022-08-12T11:53:58.557Z,1.13
2022-08-12T11:56:41.287Z,1.10
2022-08-12T12:02:37.151Z,1.38
2022-08-12T12:05:28.432Z,0.95
2022-08-12T12:08:37.187Z,1.05
2022-08-12T12:11:29.100Z,1.10
2022-08-12T12:14:38.230Z,1.20
2022-08-12T12:17:26.205Z,1.50
2022-08-12T12:20:26.059Z,1.30
2022-08-12T12:23:29.152Z,1.30
2022-08-12T12:26:34.950Z,1.13
2022-08-12T12:30:14.174Z,1.20
2022-08-12T12:32:32.084Z,1.33
2022-08-12T12:36:06.397Z,1.17
2022-08-12T12:38:26.164Z,1.10
2022-08-12T12:41:14.266Z,1.30
2022-08-12T12:44:04.431Z,1.33
2022-08-12T12:46:54.721Z,1.30
2022-08-12T12:49:42.123Z,1.35
2022-08-12T12:52:29.216Z,0.90
2022-08-12T12:55:17.604Z,1.20
2022-08-12T12:58:09.005Z,1.08
2022-08-12T13:01:01.208Z,1.25
2022-08-12T13:03:55.488Z,1.17
2022-08-12T13:06:43.061Z,0.80
2022-08-12T13:09:36.386Z,1.13
2022-08-12T13:12:24.404Z,1.25
2022-08-12T13:15:43.853Z,1.05
2022-08-12T13:18:28.527Z,1.00
2022-08-12T13:21:33.287Z,0.88
2022-08-12T13:24:21.118Z,1.25
2022-08-12T13:27:08.351Z,1.10
2022-08-12T13:29:55.975Z,1.10
2022-08-12T13:32:57.109Z,1.00
2022-08-12T13:36:06.044Z,1.02
2022-08-12T13:38:54.581Z,0.90
2022-08-12T13:41:42.595Z,0.90
2022-08-12T13:44:30.257Z,1.25
2022-08-12T13:47:22.876Z,1.00
2022-08-12T13:50:11.635Z,0.80
2022-08-12T13:52:58.603Z,0.90
2022-08-12T13:55:49.819Z,0.60
2022-08-12T13:58:49.340Z,0.85
2022-08-12T14:01:41.183Z,0.80
2022-08-12T14:04:28.234Z,0.80
2022-08-12T14:07:16.431Z,0.80
2022-08-12T14:10:18.456Z,1.10
2022-08-12T14:13:10.475Z,0.80
2022-08-12T14:16:06.794Z,0.80
2022-08-12T14:18:56.296Z,0.80
2022-08-12T14:22:00.536Z,1.00
2022-08-12T14:24:52.538Z,0.70
2022-08-12T14:28:04.660Z,0.82
2022-08-12T14:31:00.094Z,0.73
2022-08-12T14:33:49.818Z,0.68
2022-08-12T14:36:39.657Z,0.70
2022-08-12T14:39:29.733Z,0.82
2022-08-12T14:42:18.008Z,0.52
2022-08-12T14:45:07.935Z,0.88
2022-08-12T14:48:00.564Z,0.70
2022-08-12T14:51:03.216Z,0.80
2022-08-12T14:56:26.251Z,0.82
2022-08-12T14:57:20.168Z,1.58
2022-08-12T15:00:26.694Z,1.02
2022-08-12T15:03:14.234Z,0.50
2022-08-12T15:06:39.030Z,0.80
2022-08-12T15:09:12.164Z,1.00
2022-08-12T15:12:03.835Z,0.70
2022-08-12T15:14:53.892Z,0.70
2022-08-12T15:17:40.893Z,0.73
2022-08-12T15:20:37.230Z,1.00
2022-08-12T15:23:28.948Z,0.73
2022-08-12T15:26:27.458Z,0.90
2022-08-12T15:29:17.020Z,0.80
2022-08-12T15:32:10.677Z,0.70
2022-08-12T15:35:04.117Z,1.15
2022-08-12T15:38:10.140Z,0.88
2022-08-12T15:41:00.115Z,0.82
2022-08-12T15:44:16.678Z,0.90
2022-08-12T15:46:55.428Z,0.70
2022-08-12T15:50:00.647Z,0.70
2022-08-12T15:52:49.489Z,0.60
2022-08-12T15:55:46.298Z,0.70
2022-08-12T15:58:34.131Z,0.82
2022-08-12T16:01:21.190Z,0.75
2022-08-12T16:04:10.663Z,0.90
2022-08-12T16:07:08.969Z,0.80
2022-08-12T16:10:07.109Z,0.73
2022-08-12T16:12:59.486Z,0.80
2022-08-12T16:15:51.059Z,0.98
2022-08-12T16:18:50.251Z,1.00
2022-08-12T16:21:52.909Z,0.98
2022-08-12T16:24:44.711Z,1.10
2022-08-12T16:27:38.370Z,1.15
2022-08-12T16:30:32.944Z,1.00
2022-08-12T16:33:19.907Z,1.08
2022-08-12T16:36:11.459Z,0.88
2022-08-12T16:39:01.255Z,1.00
2022-08-12T16:41:50.139Z,0.90
2022-08-12T16:44:41.927Z,0.95
2022-08-12T16:47:57.557Z,0.90
2022-08-12T16:50:50.054Z,1.10
2022-08-12T16:53:45.091Z,1.02
2022-08-12T16:56:33.786Z,0.90
2022-08-12T16:59:31.006Z,0.97
2022-08-12T17:02:33.927Z,1.38
2022-08-12T17:05:25.068Z,1.25
2022-08-12T17:08:21.269Z,1.13
2022-08-12T17:11:18.008Z,0.95
2022-08-12T17:14:05.528Z,1.00
2022-08-12T17:16:54.975Z,1.10
2022-08-12T17:20:35.018Z,0.90
2022-08-12T17:22:56.537Z,1.27
2022-08-12T17:25:48.319Z,0.95
2022-08-12T17:28:36.890Z,0.82
2022-08-12T17:32:02.562Z,1.20
2022-08-12T17:34:45.647Z,0.95
2022-08-12T17:37:35.283Z,0.98
2022-08-12T17:40:36.150Z,2.55
2022-08-12T17:43:52.141Z,1.27
2022-08-12T17:46:33.723Z,1.10
2022-08-12T17:50:02.242Z,1.25
2022-08-12T17:52:33.366Z,0.93
2022-08-12T17:55:40.668Z,1.00
2022-08-12T17:58:35.547Z,1.13
2022-08-12T18:01:25.534Z,1.10
2022-08-12T18:04:22.218Z,0.77
2022-08-12T18:07:12.296Z,0.98
2022-08-12T18:10:01.666Z,1.10
2022-08-12T18:12:53.406Z,0.90
2022-08-12T18:16:04.322Z,0.80
2022-08-12T18:18:49.729Z,1.00
2022-08-12T18:22:01.723Z,1.00
2022-08-12T18:24:53.604Z,1.10
2022-08-12T18:27:50.210Z,1.23
2022-08-12T18:31:03.124Z,1.38
2022-08-12T18:36:40.176Z,1.00
2022-08-12T18:39:57.166Z,1.02
2022-08-12T18:42:54.067Z,1.00
2022-08-12T18:45:56.745Z,1.10
2022-08-12T18:48:46.273Z,1.60
2022-08-12T18:51:48.741Z,1.40
2022-08-12T18:54:48.983Z,1.00
2022-08-12T18:57:45.724Z,1.20
2022-08-12T19:00:52.706Z,1.70
2022-08-12T19:03:40.362Z,1.70
2022-08-12T19:06:38.147Z,1.45
2022-08-12T19:09:38.868Z,1.75
2022-08-12T19:12:58.099Z,1.48
2022-08-12T19:15:44.057Z,1.47
2022-08-12T19:18:31.928Z,1.40
2022-08-12T19:21:20.406Z,1.83
2022-08-12T19:24:23.563Z,1.70
2022-08-12T19:27:12.103Z,1.52
2022-08-12T19:30:07.010Z,1.30
2022-08-12T19:32:57.064Z,1.75
2022-08-12T19:36:06.586Z,1.55
2022-08-12T19:38:58.015Z,1.65
2022-08-12T19:42:00.639Z,1.42
2022-08-12T19:44:53.308Z,1.40
2022-08-12T19:47:44.784Z,1.30
2022-08-12T19:50:37.818Z,1.10
2022-08-12T19:53:27.724Z,1.40
2022-08-12T19:56:15.444Z,1.50
2022-08-12T19:59:20.880Z,1.40
2022-08-12T20:02:09.437Z,1.50
2022-08-12T20:06:05.723Z,1.30
2022-08-12T20:08:04.143Z,1.50
2022-08-12T20:10:54.070Z,1.30
2022-08-12T20:13:42.401Z,1.15
2022-08-12T20:20:05.500Z,1.30
2022-08-12T20:22:53.478Z,1.75
2022-08-12T20:25:52.694Z,1.50
2022-08-12T20:28:47.837Z,1.50
2022-08-12T20:31:37.538Z,1.83
2022-08-12T20:34:25.349Z,1.25
2022-08-12T20:37:14.272Z,1.50
2022-08-12T20:40:05.400Z,1.67
2022-08-12T20:42:53.682Z,1.38
2022-08-12T20:45:50.907Z,1.80
2022-08-12T20:48:54.872Z,1.85
2022-08-12T20:51:55.258Z,1.30
2022-08-12T20:54:50.325Z,1.70
2022-08-12T20:58:02.763Z,1.75
2022-08-12T21:00:44.675Z,1.45
2022-08-12T21:03:52.697Z,1.80
2022-08-12T21:06:58.055Z,1.75
2022-08-12T21:09:54.945Z,2.35
2022-08-12T21:12:40.624Z,2.10
2022-08-12T21:15:30.534Z,3.10
2022-08-12T21:18:28.430Z,2.38
2022-08-12T21:21:24.273Z,1.88
2022-08-12T21:24:32.363Z,2.10
2022-08-12T21:27:20.434Z,1.73
2022-08-12T21:30:08.672Z,2.50
2022-08-12T21:32:56.384Z,3.05
2022-08-12T21:35:43.493Z,2.92
2022-08-12T21:38:34.853Z,2.22
2022-08-12T21:41:23.746Z,1.70
2022-08-12T21:44:24.698Z,2.28
2022-08-12T21:47:22.531Z,2.42
2022-08-12T21:50:10.898Z,2.28
2022-08-12T21:53:10.209Z,2.13
2022-08-12T21:55:57.817Z,2.05
2022-08-12T21:58:46.409Z,2.67
2022-08-12T22:01:33.692Z,1.80
2022-08-12T22:04:49.816Z,1.83
2022-08-12T22:07:46.105Z,2.42
2022-08-12T22:10:38.430Z,1.95
2022-08-12T22:14:04.182Z,2.08
2022-08-12T22:16:37.242Z,1.88
2022-08-12T22:19:35.254Z,1.92
2022-08-12T22:22:23.903Z,1.90
2022-08-12T22:25:24.250Z,2.00
2022-08-12T22:28:27.997Z,2.40
2022-08-12T22:31:24.739Z,1.90
2022-08-12T22:34:18.353Z,2.10
2022-08-12T22:37:04.639Z,2.05
2022-08-12T22:39:51.785Z,2.35
2022-08-12T22:42:53.533Z,2.50
2022-08-12T22:45:59.167Z,1.92
2022-08-12T22:48:50.701Z,1.85
2022-08-12T22:51:57.617Z,2.50
2022-08-12T22:55:03.782Z,2.25
2022-08-12T22:57:55.118Z,2.13
2022-08-12T23:00:52.815Z,1.95
2022-08-12T23:03:49.335Z,2.72
2022-08-12T23:06:37.916Z,1.70
2022-08-12T23:09:34.649Z,2.08
2022-08-12T23:12:49.609Z,2.08
2022-08-12T23:15:35.458Z,2.15
2022-08-12T23:18:22.866Z,2.00
2022-08-12T23:21:19.439Z,2.40
2022-08-12T23:24:11.020Z,2.30
2022-08-12T23:27:16.036Z,2.35
2022-08-12T23:30:18.328Z,2.20
2022-08-12T23:33:19.737Z,2.13
2022-08-12T23:36:12.723Z,1.80
2022-08-12T23:40:15.706Z,2.38
2022-08-12T23:42:19.381Z,2.15
2022-08-12T23:45:18.902Z,1.95
2022-08-12T23:48:08.250Z,2.50
2022-08-12T23:51:23.495Z,1.98
2022-08-12T23:54:17.985Z,2.22
2022-08-12T23:57:21.102Z,2.13
